createdAt,value
2018-07-26T00:03:45.936Z,96763.52
2018-07-26T00:08:40.466Z,96772.05
2018-07-26T00:13:35.069Z,96772.98
2018-07-26T00:18:29.605Z,96766.76
2018-07-26T00:23:24.161Z,96773.86
2018-07-26T00:28:18.731Z,96762.03
2018-07-26T00:33:13.326Z,96764.13
2018-07-26T00:38:07.900Z,96770.08
2018-07-26T00:43:02.408Z,96773.66
2018-07-26T00:47:57.005Z,96776.59
2018-07-26T00:52:51.581Z,96773.33
2018-07-26T00:57:46.146Z,96778.73
2018-07-26T01:02:40.681Z,96783.38
2018-07-26T01:07:35.249Z,96780.53
2018-07-26T01:12:29.838Z,96772.84
2018-07-26T01:17:24.552Z,96777.70
2018-07-26T01:22:19.186Z,96774.77
2018-07-26T01:27:14.139Z,96773.53
2018-07-26T01:32:08.712Z,96766.16
2018-07-26T01:37:03.280Z,96776.09
2018-07-26T01:41:57.893Z,96768.91
2018-07-26T01:46:52.496Z,96770.06
2018-07-26T01:51:47.128Z,96770.66
2018-07-26T01:56:41.686Z,96769.70
2018-07-26T02:01:36.271Z,96764.67
2018-07-26T02:06:30.789Z,96764.75
2018-07-26T02:11:25.424Z,96761.64
2018-07-26T02:16:20.072Z,96760.34
2018-07-26T02:21:14.696Z,96765.98
2018-07-26T02:26:09.503Z,96762.67
2018-07-26T02:31:04.138Z,96761.15
2018-07-26T02:35:58.631Z,96764.38
2018-07-26T02:40:53.014Z,96761.48
2018-07-26T02:45:47.627Z,96770.94
2018-07-26T02:50:41.861Z,96765.64
2018-07-26T02:55:36.417Z,96778.22
2018-07-26T03:00:31.034Z,96779.09
2018-07-26T03:05:25.566Z,96770.90
2018-07-26T03:10:20.179Z,96774.11
2018-07-26T03:15:14.804Z,96775.96
2018-07-26T03:20:09.404Z,96777.33
2018-07-26T03:25:04.021Z,96781.38
2018-07-26T03:29:58.609Z,96786.47
2018-07-26T03:34:53.144Z,96786.79
2018-07-26T03:39:47.684Z,96785.23
2018-07-26T03:44:42.258Z,96783.37
2018-07-26T03:49:36.857Z,96781.83
2018-07-26T03:54:31.450Z,96778.91
2018-07-26T03:59:26.585Z,96777.63
2018-07-26T04:04:21.092Z,96783.22
2018-07-26T04:09:16.294Z,96794.36
2018-07-26T04:14:11.031Z,96788.23
2018-07-26T04:19:05.720Z,96786.23
2018-07-26T04:24:00.700Z,96791.13
2018-07-26T04:28:55.274Z,96797.53
2018-07-26T04:33:50.102Z,96794.02
2018-07-26T04:38:44.629Z,96794.94
2018-07-26T04:43:39.236Z,96793.49
2018-07-26T04:48:34.425Z,96784.34
2018-07-26T04:53:29.212Z,96789.37
2018-07-26T04:58:23.810Z,96790.19
2018-07-26T05:03:18.568Z,96793.36
2018-07-26T05:08:13.204Z,96792.92
2018-07-26T05:13:07.822Z,96794.19
2018-07-26T05:18:02.388Z,96789.37
2018-07-26T05:22:56.999Z,96800.09
2018-07-26T05:27:51.925Z,96796.14
2018-07-26T05:32:47.720Z,96807.52
2018-07-26T05:37:42.637Z,96808.37
2018-07-26T05:42:37.341Z,96800.73
2018-07-26T05:47:31.996Z,96802.09
2018-07-26T05:52:26.607Z,96800.08
2018-07-26T05:57:33.798Z,96807.15
2018-07-26T06:02:28.896Z,96807.70
2018-07-26T06:07:23.421Z,96808.48
2018-07-26T06:12:18.037Z,96813.66
2018-07-26T06:17:12.899Z,96814.86
2018-07-26T06:22:07.421Z,96806.78
2018-07-26T06:27:01.850Z,96809.84
2018-07-26T06:31:56.349Z,96815.06
2018-07-26T06:36:50.778Z,96815.97
2018-07-26T06:41:45.513Z,96817.34
2018-07-26T06:46:39.682Z,96817.02
2018-07-26T06:51:34.385Z,96810.60
2018-07-26T06:56:28.906Z,96811.42
2018-07-26T07:01:23.381Z,96809.96
2018-07-26T07:06:17.805Z,96809.49
2018-07-26T07:11:12.325Z,96825.19
2018-07-26T07:16:06.815Z,96813.31
2018-07-26T07:21:03.094Z,96809.34
2018-07-26T07:25:58.538Z,96805.13
2018-07-26T07:30:52.743Z,96808.86
2018-07-26T07:36:02.199Z,96812.62
2018-07-26T07:40:56.852Z,96800.96
2018-07-26T07:45:51.427Z,96804.48
2018-07-26T07:50:47.082Z,96807.73
2018-07-26T07:55:41.893Z,96808.80
2018-07-26T08:00:36.325Z,96796.11
2018-07-26T08:05:30.784Z,96798.56
2018-07-26T08:10:25.300Z,96800.13
2018-07-26T08:15:19.909Z,96799.04
2018-07-26T08:20:14.371Z,96805.60
2018-07-26T08:25:09.721Z,96799.39
2018-07-26T08:30:05.682Z,96801.52
2018-07-26T08:35:00.221Z,96797.13
2018-07-26T08:39:54.853Z,96792.64
2018-07-26T08:44:50.653Z,96787.27
2018-07-26T08:49:46.204Z,96789.25
2018-07-26T08:54:41.330Z,96785.27
2018-07-26T08:59:36.798Z,96779.98
2018-07-26T09:04:37.228Z,96788.90
2018-07-26T09:09:32.621Z,96785.91
2018-07-26T09:14:27.114Z,96788.41
2018-07-26T09:19:21.338Z,96779.39
2018-07-26T09:24:22.216Z,96775.88
2018-07-26T09:29:17.319Z,96773.22
2018-07-26T09:34:11.961Z,96767.36
2018-07-26T09:39:14.126Z,96773.11
2018-07-26T09:44:09.745Z,96773.14
2018-07-26T09:49:04.392Z,96767.91
2018-07-26T09:53:58.867Z,96764.00
2018-07-26T09:58:53.404Z,96759.28
2018-07-26T10:03:47.884Z,96748.34
2018-07-26T10:08:42.392Z,96751.84
2018-07-26T10:13:36.877Z,96742.56
2018-07-26T10:18:31.491Z,96734.28
2018-07-26T10:23:25.967Z,96731.63
2018-07-26T10:28:31.374Z,96724.36
2018-07-26T10:33:26.089Z,96727.12
2018-07-26T10:38:20.724Z,96725.86
2018-07-26T10:43:15.554Z,96722.66
2018-07-26T10:48:10.329Z,96715.23
2018-07-26T10:53:05.204Z,96713.91
2018-07-26T10:58:02.032Z,96722.22
2018-07-26T11:03:08.297Z,96718.08
2018-07-26T11:08:03.434Z,96713.53
2018-07-26T11:12:58.663Z,96708.73
2018-07-26T11:17:53.573Z,96707.91
2018-07-26T11:22:48.444Z,96708.65
2018-07-26T11:27:43.722Z,96702.84
2018-07-26T11:32:38.453Z,96702.16
2018-07-26T11:37:37.257Z,96705.75
2018-07-26T11:42:39.800Z,96695.60
2018-07-26T11:47:46.386Z,96693.95
2018-07-26T11:52:41.571Z,96689.73
2018-07-26T11:57:36.285Z,96692.53
2018-07-26T12:24:04.562Z,96669.06
2018-07-26T12:29:01.105Z,96662.98
2018-07-26T12:33:58.272Z,96666.28
2018-07-26T12:38:53.090Z,96660.55
2018-07-26T12:43:47.893Z,96659.28
2018-07-26T12:48:42.571Z,96654.09
2018-07-26T13:09:52.190Z,96634.21
2018-07-26T13:14:47.076Z,96626.02
2018-07-26T13:19:41.805Z,96637.62
2018-07-26T13:24:36.469Z,96621.06
2018-07-26T13:29:31.141Z,96633.12
2018-07-26T13:34:26.048Z,96624.48
2018-07-26T13:39:21.626Z,96623.59
2018-07-26T13:44:17.271Z,96620.62
2018-07-26T13:49:12.097Z,96622.00
2018-07-26T13:54:07.165Z,96619.59
2018-07-26T13:59:01.939Z,96618.97
2018-07-26T14:03:56.988Z,96611.23
2018-07-26T14:08:51.601Z,96613.95
2018-07-26T14:13:46.376Z,96606.53
2018-07-26T14:18:41.364Z,96598.89
2018-07-26T14:23:38.153Z,96600.64
2018-07-26T14:28:32.925Z,96608.73
2018-07-26T14:33:27.560Z,96593.36
2018-07-26T14:38:22.160Z,96593.64
2018-07-26T14:43:16.771Z,96586.59
2018-07-26T14:48:11.430Z,96580.02
2018-07-26T14:53:06.216Z,96585.09
2018-07-26T14:58:01.050Z,96587.52
2018-07-26T15:02:55.873Z,96582.31
2018-07-26T15:07:50.734Z,96580.00
2018-07-26T15:12:45.345Z,96581.67
2018-07-26T15:17:40.391Z,96580.16
2018-07-26T15:22:35.081Z,96573.04
2018-07-26T15:27:30.073Z,96579.37
2018-07-26T15:32:24.676Z,96575.23
2018-07-26T15:37:19.280Z,96573.76
2018-07-26T15:42:14.046Z,96578.93
2018-07-26T15:47:08.774Z,96578.59
2018-07-26T15:52:03.549Z,96572.16
2018-07-26T15:56:58.257Z,96568.16
2018-07-26T16:01:52.854Z,96576.02
2018-07-26T16:06:47.731Z,96569.98
2018-07-26T16:11:42.432Z,96564.10
2018-07-26T16:16:37.030Z,96560.62
2018-07-26T16:21:31.669Z,96569.04
2018-07-26T16:26:26.320Z,96565.54
2018-07-26T16:31:21.781Z,96571.53
2018-07-26T16:36:16.441Z,96574.60
2018-07-26T16:41:11.065Z,96576.88
2018-07-26T16:46:05.780Z,96574.31
2018-07-26T16:51:00.571Z,96581.14
2018-07-26T16:55:55.129Z,96582.12
2018-07-26T17:00:49.721Z,96584.39
2018-07-26T17:05:44.394Z,96590.38
2018-07-26T17:10:39.030Z,96581.41
2018-07-26T17:15:33.664Z,96587.37
2018-07-26T17:20:28.574Z,96587.66
2018-07-26T17:25:26.155Z,96591.77
2018-07-26T17:30:20.793Z,96596.30
2018-07-26T17:35:15.295Z,96596.98
2018-07-26T17:40:10.161Z,96605.73
2018-07-26T17:45:07.280Z,96592.81
2018-07-26T17:50:01.866Z,96602.59
2018-07-26T17:54:56.744Z,96604.89
2018-07-26T17:59:51.304Z,96605.97
2018-07-26T18:04:45.856Z,96612.02
2018-07-26T18:09:40.119Z,96613.21
2018-07-26T18:14:34.709Z,96610.66
2018-07-26T18:19:30.013Z,96620.27
2018-07-26T18:24:24.590Z,96618.02
2018-07-26T18:29:19.198Z,96620.88
2018-07-26T18:34:13.753Z,96626.41
2018-07-26T18:39:11.898Z,96625.63
2018-07-26T18:44:06.765Z,96636.23
2018-07-26T18:49:01.190Z,96636.03
2018-07-26T18:53:55.955Z,96642.54
2018-07-26T18:58:50.566Z,96649.95
2018-07-26T19:03:45.189Z,96649.05
2018-07-26T19:08:39.800Z,96652.15
2018-07-26T19:13:34.622Z,96653.20
2018-07-26T19:18:29.250Z,96664.83
2018-07-26T19:23:23.807Z,96671.52
2018-07-26T19:28:18.369Z,96674.30
2018-07-26T19:33:12.647Z,96673.77
2018-07-26T19:38:07.273Z,96676.84
2018-07-26T19:43:01.830Z,96682.06
2018-07-26T19:47:56.604Z,96683.38
2018-07-26T19:52:51.104Z,96694.07
2018-07-26T19:57:45.687Z,96693.27
2018-07-26T20:02:40.444Z,96693.73
2018-07-26T20:07:34.981Z,96695.09
2018-07-26T20:12:29.657Z,96698.62
2018-07-26T20:17:24.425Z,96706.03
2018-07-26T20:22:19.118Z,96701.56
2018-07-26T20:27:13.753Z,96704.34
2018-07-26T20:32:08.306Z,96703.38
2018-07-26T20:37:02.913Z,96704.50
2018-07-26T20:41:57.569Z,96715.58
2018-07-26T20:46:51.890Z,96711.72
2018-07-26T20:51:46.476Z,96724.69
2018-07-26T20:56:41.042Z,96715.75
2018-07-26T21:01:35.637Z,96708.89
2018-07-26T21:06:30.328Z,96715.21
2018-07-26T21:11:24.670Z,96710.48
2018-07-26T21:16:19.271Z,96712.23
2018-07-26T21:21:13.839Z,96703.53
2018-07-26T21:26:08.377Z,96710.64
2018-07-26T21:31:02.960Z,96707.77
2018-07-26T21:35:57.560Z,96703.13
2018-07-26T21:40:52.130Z,96702.08
2018-07-26T21:45:47.157Z,96700.28
2018-07-26T21:50:41.734Z,96708.09
2018-07-26T21:55:36.366Z,96708.16
2018-07-26T22:00:39.693Z,96709.34
2018-07-26T22:05:34.246Z,96713.27
2018-07-26T22:10:28.901Z,96710.59
2018-07-26T22:15:23.525Z,96706.14
2018-07-26T22:20:18.126Z,96702.52
2018-07-26T22:25:12.708Z,96703.91
2018-07-26T22:30:07.374Z,96701.13
2018-07-26T22:35:01.921Z,96696.71
2018-07-26T22:39:56.561Z,96700.93
2018-07-26T22:44:51.096Z,96695.92
2018-07-26T22:49:45.644Z,96685.12
2018-07-26T22:54:40.233Z,96687.68
2018-07-26T22:59:34.463Z,96699.42
2018-07-26T23:04:29.015Z,96684.19
2018-07-26T23:09:23.568Z,96683.83
2018-07-26T23:14:18.095Z,96689.75
2018-07-26T23:19:12.641Z,96677.35
2018-07-26T23:24:07.254Z,96678.16
2018-07-26T23:29:01.819Z,96682.55
2018-07-26T23:33:56.461Z,96689.56
2018-07-26T23:38:50.990Z,96687.28
2018-07-26T23:43:45.223Z,96683.55
2018-07-26T23:48:39.783Z,96688.13
2018-07-26T23:53:34.086Z,96680.50
2018-07-26T23:58:28.322Z,96679.25
